Time;durP1;ratioP1;P1;durP2;ratioP2;P2;SDS_P1;SDS_P2;PMS_P1;PMS_P2;Temp;Humidity;BMP_temperature;BMP_pressure;BME280_temperature;BME280_humidity;BME280_pressure;Samples;Min_cycle;Max_cycle;Signal;HPM_P1;HPM_P2
2024/01/09 00:01:08;;;;;;;9.80;5.18;;;;;;;;;;4987101;28;20041;-68
2024/01/09 00:03:33;;;;;;;9.13;5.68;;;;;;;;;;4984731;28;20112;-68
2024/01/09 00:06:02;;;;;;;7.97;5.40;;;;;;;;;;4990002;28;20042;-68
2024/01/09 00:08:28;;;;;;;8.38;5.00;;;;;;;;;;4985588;28;20050;-68
2024/01/09 00:10:54;;;;;;;8.10;5.53;;;;;;;;;;4985583;28;20046;-68
2024/01/09 00:13:20;;;;;;;11.07;5.68;;;;;;;;;;4985654;28;20046;-68
2024/01/09 00:15:46;;;;;;;8.23;5.10;;;;;;;;;;4982368;28;20535;-68
2024/01/09 00:18:12;;;;;;;7.75;5.55;;;;;;;;;;4986096;28;20042;-68
2024/01/09 00:20:38;;;;;;;9.52;5.60;;;;;;;;;;4988214;28;20050;-68
2024/01/09 00:23:04;;;;;;;10.50;5.07;;;;;;;;;;4988342;28;20096;-68
2024/01/09 00:25:30;;;;;;;8.02;5.07;;;;;;;;;;4984959;28;20510;-68
2024/01/09 00:27:57;;;;;;;8.77;5.50;;;;;;;;;;4985397;28;20085;-68
2024/01/09 00:30:23;;;;;;;7.88;4.90;;;;;;;;;;4980143;28;20058;-68
2024/01/09 00:32:50;;;;;;;8.15;5.43;;;;;;;;;;4984450;28;20471;-68
2024/01/09 00:35:16;;;;;;;7.68;5.07;;;;;;;;;;4987847;28;20137;-68
2024/01/09 00:37:42;;;;;;;7.60;5.10;;;;;;;;;;4989700;28;20046;-68
2024/01/09 00:40:08;;;;;;;8.10;5.40;;;;;;;;;;4987878;28;20046;-68
2024/01/09 00:42:35;;;;;;;8.88;5.22;;;;;;;;;;4985421;28;20054;-68
2024/01/09 00:45:01;;;;;;;8.13;5.15;;;;;;;;;;4987416;28;20039;-68
2024/01/09 00:47:27;;;;;;;9.18;5.40;;;;;;;;;;4986753;28;20053;-68
2024/01/09 00:49:53;;;;;;;9.48;5.38;;;;;;;;;;4990511;28;20061;-68
2024/01/09 00:52:19;;;;;;;8.48;5.10;;;;;;;;;;5001861;28;20050;-68
2024/01/09 00:54:46;;;;;;;7.82;5.15;;;;;;;;;;4988722;28;20045;-68
2024/01/09 00:57:13;;;;;;;8.27;4.53;;;;;;;;;;4991402;28;20399;-68
2024/01/09 00:59:39;;;;;;;8.40;5.30;;;;;;;;;;4987425;28;20105;-68
2024/01/09 01:02:05;;;;;;;5.97;4.57;;;;;;;;;;4991550;28;20050;-68
2024/01/09 01:04:31;;;;;;;10.57;5.63;;;;;;;;;;4991376;28;20050;-68
2024/01/09 01:06:57;;;;;;;9.48;5.20;;;;;;;;;;4974463;28;20054;-68
2024/01/09 01:09:23;;;;;;;9.52;5.05;;;;;;;;;;4986797;28;20069;-68
2024/01/09 01:11:49;;;;;;;6.63;4.53;;;;;;;;;;4984688;28;20046;-68
2024/01/09 01:14:15;;;;;;;7.95;4.78;;;;;;;;;;4988448;28;20042;-68
2024/01/09 01:16:41;;;;;;;8.77;5.53;;;;;;;;;;4996455;28;20045;-68
2024/01/09 01:19:07;;;;;;;9.35;5.05;;;;;;;;;;4994746;28;20434;-68
2024/01/09 01:21:33;;;;;;;8.00;4.95;;;;;;;;;;4980869;28;21763;-68
2024/01/09 01:23:59;;;;;;;10.18;5.13;;;;;;;;;;4984546;28;20134;-68
2024/01/09 01:26:25;;;;;;;6.72;4.63;;;;;;;;;;4989288;28;20047;-68
2024/01/09 01:28:51;;;;;;;8.05;4.88;;;;;;;;;;4984189;28;20104;-69
2024/01/09 01:31:17;;;;;;;7.30;4.53;;;;;;;;;;4984645;28;20425;-68
2024/01/09 01:33:43;;;;;;;7.55;4.75;;;;;;;;;;4993822;28;20961;-68
2024/01/09 01:36:16;;;;;;;7.00;5.07;;;;;;;;;;5016920;28;20482;-68
2024/01/09 01:38:43;;;;;;;7.73;4.60;;;;;;;;;;4985722;28;20071;-68
2024/01/09 01:41:09;;;;;;;9.43;4.80;;;;;;;;;;4992059;28;20132;-68
2024/01/09 01:43:35;;;;;;;8.65;5.18;;;;;;;;;;4987070;28;20177;-68
2024/01/09 01:46:02;;;;;;;5.80;4.43;;;;;;;;;;4985091;28;20050;-69
2024/01/09 01:48:28;;;;;;;7.30;4.85;;;;;;;;;;4991350;28;20104;-68
2024/01/09 01:50:54;;;;;;;6.78;4.63;;;;;;;;;;4992534;28;20472;-69
2024/01/09 01:53:20;;;;;;;8.18;4.82;;;;;;;;;;4992525;28;20079;-68
2024/01/09 01:55:47;;;;;;;7.13;4.63;;;;;;;;;;4983120;28;20042;-69
2024/01/09 01:58:13;;;;;;;7.50;4.65;;;;;;;;;;4989711;28;20494;-69
2024/01/09 02:00:39;;;;;;;7.15;4.72;;;;;;;;;;4990359;28;20046;-68
2024/01/09 02:03:05;;;;;;;8.38;5.50;;;;;;;;;;4992780;28;20054;-68
2024/01/09 02:05:32;;;;;;;8.98;5.20;;;;;;;;;;4990461;28;20410;-69
2024/01/09 02:07:58;;;;;;;9.07;5.13;;;;;;;;;;4990341;28;20058;-69
2024/01/09 02:10:24;;;;;;;7.22;4.75;;;;;;;;;;4989799;28;20129;-69
2024/01/09 02:12:50;;;;;;;6.68;4.90;;;;;;;;;;4989399;28;20041;-69
2024/01/09 02:15:17;;;;;;;7.28;4.82;;;;;;;;;;4987783;28;20495;-69
2024/01/09 02:17:43;;;;;;;9.10;5.50;;;;;;;;;;4988375;28;20042;-68
2024/01/09 02:20:12;;;;;;;8.85;4.93;;;;;;;;;;4985516;28;20441;-68
2024/01/09 02:22:38;;;;;;;6.10;4.70;;;;;;;;;;4990947;28;20085;-69
2024/01/09 02:25:04;;;;;;;8.45;4.93;;;;;;;;;;4989885;28;20034;-68
2024/01/09 02:27:47;;;;;;;8.40;5.22;;;;;;;;;;4992131;28;20127;-69
2024/01/09 02:30:13;;;;;;;9.23;5.50;;;;;;;;;;4988351;28;20809;-68
2024/01/09 02:32:39;;;;;;;8.65;5.47;;;;;;;;;;4987404;28;20125;-68
2024/01/09 02:35:05;;;;;;;6.43;4.60;;;;;;;;;;4989394;28;20446;-68
2024/01/09 02:37:31;;;;;;;8.25;4.85;;;;;;;;;;4990304;28;20054;-68
2024/01/09 02:40:00;;;;;;;6.53;4.88;;;;;;;;;;4989303;28;20100;-69
2024/01/09 02:42:26;;;;;;;10.80;4.90;;;;;;;;;;4993148;28;20066;-68
2024/01/09 02:44:54;;;;;;;7.95;5.43;;;;;;;;;;4990059;28;20483;-68
2024/01/09 02:47:20;;;;;;;6.95;4.53;;;;;;;;;;4988053;28;20511;-69
2024/01/09 02:49:46;;;;;;;9.65;5.25;;;;;;;;;;5025972;28;20146;-68
2024/01/09 02:52:15;;;;;;;14.13;5.47;;;;;;;;;;4987054;28;20133;-68
2024/01/09 02:54:41;;;;;;;7.97;4.70;;;;;;;;;;4993399;28;20398;-68
2024/01/09 02:57:07;;;;;;;8.57;5.18;;;;;;;;;;4991274;28;20043;-68
2024/01/09 02:59:33;;;;;;;8.05;5.18;;;;;;;;;;4985455;28;20053;-68
2024/01/09 03:01:59;;;;;;;8.10;5.05;;;;;;;;;;4986025;28;20046;-69
2024/01/09 03:04:25;;;;;;;7.32;4.95;;;;;;;;;;4987780;28;20050;-68
2024/01/09 03:06:52;;;;;;;7.90;4.80;;;;;;;;;;4984218;28;20104;-68
2024/01/09 03:09:18;;;;;;;8.98;5.13;;;;;;;;;;4981797;28;20057;-68
2024/01/09 03:11:44;;;;;;;8.13;5.18;;;;;;;;;;4984960;28;20046;-68
2024/01/09 03:14:10;;;;;;;10.18;5.60;;;;;;;;;;5018236;28;20181;-68
2024/01/09 03:16:39;;;;;;;9.65;5.38;;;;;;;;;;4985362;28;20069;-68
2024/01/09 03:19:05;;;;;;;10.00;5.38;;;;;;;;;;4983849;28;20042;-68
2024/01/09 03:21:31;;;;;;;8.63;5.00;;;;;;;;;;4983149;28;20049;-68
2024/01/09 03:23:57;;;;;;;8.38;5.40;;;;;;;;;;4994262;28;20034;-68
2024/01/09 03:26:23;;;;;;;10.07;5.72;;;;;;;;;;4986584;28;20043;-68
2024/01/09 03:28:49;;;;;;;10.38;4.97;;;;;;;;;;4993427;28;20050;-68
2024/01/09 03:31:21;;;;;;;9.57;5.82;;;;;;;;;;4990631;28;20042;-68
2024/01/09 03:33:48;;;;;;;8.93;5.65;;;;;;;;;;4987061;28;20530;-68
2024/01/09 03:36:14;;;;;;;7.53;5.68;;;;;;;;;;4985817;28;20502;-68
2024/01/09 03:38:43;;;;;;;7.57;5.13;;;;;;;;;;4988414;28;20064;-68
2024/01/09 03:41:09;;;;;;;8.80;5.55;;;;;;;;;;4989287;28;20046;-68
2024/01/09 03:43:35;;;;;;;7.30;5.10;;;;;;;;;;4985310;28;20133;-68
2024/01/09 03:46:02;;;;;;;10.10;5.32;;;;;;;;;;4983591;28;20138;-68
2024/01/09 03:48:28;;;;;;;7.00;5.00;;;;;;;;;;4988946;28;20046;-68
2024/01/09 03:50:57;;;;;;;8.23;5.53;;;;;;;;;;5002756;28;20054;-68
2024/01/09 03:53:23;;;;;;;9.23;5.28;;;;;;;;;;4985854;28;20045;-68
2024/01/09 03:55:49;;;;;;;8.25;5.45;;;;;;;;;;5003260;28;20505;-68
2024/01/09 03:58:15;;;;;;;8.13;5.30;;;;;;;;;;4991922;28;20038;-68
2024/01/09 04:00:41;;;;;;;8.70;5.35;;;;;;;;;;4988206;28;20042;-68
2024/01/09 04:03:07;;;;;;;8.15;5.03;;;;;;;;;;4984384;28;20042;-68
2024/01/09 04:05:33;;;;;;;9.90;5.35;;;;;;;;;;4987058;28;20070;-68
2024/01/09 04:07:59;;;;;;;8.35;5.22;;;;;;;;;;4992230;28;20050;-68
2024/01/09 04:10:25;;;;;;;9.85;5.32;;;;;;;;;;4989892;28;20410;-68
2024/01/09 04:12:51;;;;;;;8.38;5.00;;;;;;;;;;4993528;28;20042;-68
2024/01/09 04:15:17;;;;;;;9.70;5.45;;;;;;;;;;4982144;28;20078;-68
2024/01/09 04:17:43;;;;;;;8.93;5.50;;;;;;;;;;5017656;28;20046;-68
2024/01/09 04:20:13;;;;;;;8.57;4.97;;;;;;;;;;4991947;28;20486;-68
2024/01/09 04:22:39;;;;;;;8.38;5.18;;;;;;;;;;4982038;28;20379;-68
2024/01/09 04:25:06;;;;;;;7.35;5.05;;;;;;;;;;4985846;28;20393;-68
2024/01/09 04:27:32;;;;;;;7.05;5.13;;;;;;;;;;4982951;28;20039;-68
2024/01/09 04:29:58;;;;;;;7.80;4.85;;;;;;;;;;5017394;28;20050;-68
2024/01/09 04:32:24;;;;;;;7.68;5.07;;;;;;;;;;4988080;28;20902;-68
2024/01/09 04:34:50;;;;;;;9.02;5.20;;;;;;;;;;4983777;28;20089;-68
2024/01/09 04:37:19;;;;;;;6.55;5.03;;;;;;;;;;4983686;28;20442;-68
2024/01/09 04:39:45;;;;;;;6.35;5.00;;;;;;;;;;4984909;28;20050;-68
2024/01/09 04:42:11;;;;;;;9.05;5.25;;;;;;;;;;4988779;28;20050;-68
2024/01/09 04:44:37;;;;;;;7.85;4.90;;;;;;;;;;4987384;28;20046;-68
2024/01/09 04:47:03;;;;;;;6.78;5.32;;;;;;;;;;4987710;28;20483;-68
2024/01/09 04:49:29;;;;;;;10.02;5.25;;;;;;;;;;4987266;28;20046;-68
2024/01/09 04:51:55;;;;;;;6.90;4.75;;;;;;;;;;4988746;28;20069;-68
2024/01/09 04:54:21;;;;;;;8.55;5.15;;;;;;;;;;4990088;28;20038;-68
2024/01/09 04:56:47;;;;;;;9.10;5.63;;;;;;;;;;4989967;28;20053;-68
2024/01/09 04:59:13;;;;;;;8.02;5.15;;;;;;;;;;4984996;28;20050;-68
2024/01/09 05:01:39;;;;;;;8.90;5.55;;;;;;;;;;4988468;28;20046;-68
2024/01/09 05:04:05;;;;;;;9.00;5.80;;;;;;;;;;4988729;28;20062;-68
2024/01/09 05:06:31;;;;;;;9.68;5.95;;;;;;;;;;4983353;28;20082;-68
2024/01/09 05:09:00;;;;;;;14.32;6.68;;;;;;;;;;4985547;28;20519;-67
2024/01/09 05:11:26;;;;;;;8.55;5.45;;;;;;;;;;4982799;28;20146;-68
2024/01/09 05:13:55;;;;;;;8.07;4.78;;;;;;;;;;4989350;28;20108;-68
2024/01/09 05:16:21;;;;;;;10.55;5.85;;;;;;;;;;4986139;28;20073;-68
2024/01/09 05:18:47;;;;;;;7.40;4.97;;;;;;;;;;4985759;28;20058;-68
2024/01/09 05:21:13;;;;;;;6.15;4.30;;;;;;;;;;4997766;28;20046;-68
2024/01/09 05:23:39;;;;;;;8.90;4.80;;;;;;;;;;4978557;28;20198;-68
2024/01/09 05:26:06;;;;;;;6.90;4.70;;;;;;;;;;5001698;28;20054;-67
2024/01/09 05:28:32;;;;;;;9.85;4.82;;;;;;;;;;4982714;28;20042;-68
2024/01/09 05:30:58;;;;;;;7.88;5.05;;;;;;;;;;4984464;28;20041;-68
2024/01/09 05:33:24;;;;;;;8.48;5.25;;;;;;;;;;4996737;28;20050;-68
2024/01/09 05:35:51;;;;;;;8.35;4.68;;;;;;;;;;4992121;28;20046;-67
2024/01/09 05:38:17;;;;;;;8.07;5.13;;;;;;;;;;4985728;28;20058;-68
2024/01/09 05:40:43;;;;;;;8.07;5.07;;;;;;;;;;5021527;28;20058;-67
2024/01/09 05:43:09;;;;;;;7.05;4.80;;;;;;;;;;5012430;28;20073;-68
2024/01/09 05:45:35;;;;;;;10.30;5.60;;;;;;;;;;4980609;28;20479;-68
2024/01/09 05:48:01;;;;;;;7.82;5.00;;;;;;;;;;4989604;28;20045;-68
2024/01/09 05:50:27;;;;;;;11.02;6.22;;;;;;;;;;4987666;28;20050;-68
2024/01/09 05:52:53;;;;;;;8.07;5.30;;;;;;;;;;4995871;28;20120;-68
2024/01/09 05:55:19;;;;;;;7.70;4.88;;;;;;;;;;4985814;28;20522;-68
2024/01/09 05:57:45;;;;;;;6.80;4.97;;;;;;;;;;4982424;28;20053;-68
2024/01/09 06:00:11;;;;;;;8.15;5.70;;;;;;;;;;5016050;28;20038;-68
2024/01/09 06:02:37;;;;;;;5.85;4.55;;;;;;;;;;4985295;28;20085;-68
2024/01/09 06:05:03;;;;;;;7.35;4.97;;;;;;;;;;4982840;28;20080;-67
2024/01/09 06:07:29;;;;;;;7.82;5.13;;;;;;;;;;4982369;28;20582;-68
2024/01/09 06:09:55;;;;;;;7.75;5.35;;;;;;;;;;4981469;28;20121;-67
2024/01/09 06:12:21;;;;;;;8.85;5.53;;;;;;;;;;4980434;28;20133;-68
2024/01/09 06:14:47;;;;;;;13.48;8.48;;;;;;;;;;4983054;28;20054;-68
2024/01/09 06:17:14;;;;;;;9.52;5.65;;;;;;;;;;4983920;28;20050;-68
2024/01/09 06:19:42;;;;;;;8.80;5.60;;;;;;;;;;4986429;28;20050;-68
2024/01/09 06:22:08;;;;;;;9.13;5.75;;;;;;;;;;4984444;28;20137;-68
2024/01/09 06:24:34;;;;;;;9.60;6.10;;;;;;;;;;4981642;28;20050;-67
2024/01/09 06:27:00;;;;;;;8.50;5.75;;;;;;;;;;4983111;28;20553;-68
2024/01/09 06:29:29;;;;;;;8.65;5.15;;;;;;;;;;4981800;28;20046;-68
2024/01/09 06:31:55;;;;;;;7.95;5.28;;;;;;;;;;4982763;28;20406;-68
2024/01/09 06:34:21;;;;;;;7.53;5.20;;;;;;;;;;4987483;28;20035;-68
2024/01/09 06:36:47;;;;;;;7.82;5.03;;;;;;;;;;4989386;28;20035;-68
2024/01/09 06:39:13;;;;;;;9.07;5.30;;;;;;;;;;4989234;28;20057;-68
2024/01/09 06:41:39;;;;;;;8.57;5.38;;;;;;;;;;4989873;28;20084;-68
2024/01/09 06:44:05;;;;;;;7.28;5.18;;;;;;;;;;4985300;28;20074;-68
2024/01/09 06:46:31;;;;;;;7.95;5.38;;;;;;;;;;4989587;28;20121;-67
2024/01/09 06:48:57;;;;;;;7.72;4.78;;;;;;;;;;4986718;28;20049;-67
2024/01/09 06:51:25;;;;;;;8.18;5.05;;;;;;;;;;4994354;28;20061;-67
2024/01/09 06:53:51;;;;;;;7.72;4.90;;;;;;;;;;4989373;28;20101;-67
2024/01/09 06:56:17;;;;;;;7.07;4.97;;;;;;;;;;4988430;28;20046;-67
2024/01/09 06:58:45;;;;;;;7.07;5.20;;;;;;;;;;4991349;28;20046;-67
2024/01/09 07:01:11;;;;;;;7.32;5.15;;;;;;;;;;4989543;28;20042;-67
2024/01/09 07:03:37;;;;;;;7.85;5.38;;;;;;;;;;4988238;28;20125;-67
2024/01/09 07:06:03;;;;;;;6.97;5.53;;;;;;;;;;4986196;28;20054;-67
2024/01/09 07:08:29;;;;;;;7.63;5.35;;;;;;;;;;4989983;28;20046;-68
2024/01/09 07:10:56;;;;;;;6.68;5.53;;;;;;;;;;4988404;28;20127;-67
2024/01/09 07:13:22;;;;;;;9.10;5.45;;;;;;;;;;4987691;28;20050;-67
2024/01/09 07:15:49;;;;;;;8.48;5.57;;;;;;;;;;4992211;28;20387;-67
2024/01/09 07:18:15;;;;;;;7.10;4.97;;;;;;;;;;4988577;28;20050;-67
2024/01/09 07:20:42;;;;;;;7.45;5.38;;;;;;;;;;4990890;28;20380;-67
2024/01/09 07:23:08;;;;;;;8.82;5.40;;;;;;;;;;4990278;28;20054;-67
2024/01/09 07:25:34;;;;;;;8.38;5.45;;;;;;;;;;4986285;28;20450;-67
2024/01/09 07:28:00;;;;;;;10.57;5.93;;;;;;;;;;4985685;28;20042;-67
2024/01/09 07:30:26;;;;;;;7.18;4.95;;;;;;;;;;4985595;28;20057;-67
2024/01/09 07:32:52;;;;;;;7.13;5.28;;;;;;;;;;4990514;28;20533;-67
2024/01/09 07:35:18;;;;;;;8.38;5.22;;;;;;;;;;4985873;28;20046;-68
2024/01/09 07:37:44;;;;;;;8.55;5.25;;;;;;;;;;4989663;28;20093;-67
2024/01/09 07:40:10;;;;;;;6.65;4.97;;;;;;;;;;4991461;28;20050;-67
2024/01/09 07:42:36;;;;;;;6.57;5.07;;;;;;;;;;4982510;28;20177;-67
2024/01/09 07:45:03;;;;;;;8.20;5.32;;;;;;;;;;4993605;28;20053;-67
2024/01/09 07:47:29;;;;;;;8.77;5.28;;;;;;;;;;4994816;28;20070;-67
2024/01/09 07:49:58;;;;;;;9.43;5.43;;;;;;;;;;5003678;28;20050;-67
2024/01/09 07:52:27;;;;;;;9.07;5.65;;;;;;;;;;5003013;28;20077;-67
2024/01/09 07:54:56;;;;;;;7.25;4.93;;;;;;;;;;5024244;28;20034;-67
2024/01/09 07:57:24;;;;;;;10.30;5.20;;;;;;;;;;4993436;28;20116;-67
2024/01/09 07:59:50;;;;;;;7.30;4.93;;;;;;;;;;4992723;28;20042;-67
2024/01/09 08:02:16;;;;;;;6.80;5.20;;;;;;;;;;4990939;28;20065;-68
2024/01/09 08:04:42;;;;;;;7.00;5.22;;;;;;;;;;4986016;28;20050;-67
2024/01/09 08:07:08;;;;;;;7.18;4.57;;;;;;;;;;4990409;28;20100;-68
2024/01/09 08:09:34;;;;;;;8.60;5.65;;;;;;;;;;4984898;28;20459;-67
2024/01/09 08:12:00;;;;;;;7.53;5.07;;;;;;;;;;4980530;28;20073;-67
2024/01/09 08:14:26;;;;;;;11.10;5.30;;;;;;;;;;4998064;28;20077;-67
2024/01/09 08:16:52;;;;;;;8.48;5.72;;;;;;;;;;4988728;28;20514;-67
2024/01/09 08:19:18;;;;;;;7.85;5.40;;;;;;;;;;4993194;28;20061;-68
2024/01/09 08:21:44;;;;;;;6.57;4.78;;;;;;;;;;4986627;28;20050;-67
2024/01/09 08:24:18;;;;;;;7.80;5.50;;;;;;;;;;4989425;28;20511;-67
2024/01/09 08:26:47;;;;;;;10.63;5.60;;;;;;;;;;4987023;28;20137;-67
2024/01/09 08:29:13;;;;;;;8.95;5.30;;;;;;;;;;4990771;28;20066;-67
2024/01/09 08:31:46;;;;;;;7.68;5.38;;;;;;;;;;4991322;28;20121;-67
2024/01/09 08:34:12;;;;;;;6.93;5.32;;;;;;;;;;4985732;28;20437;-67
2024/01/09 08:36:39;;;;;;;6.78;5.18;;;;;;;;;;5017416;28;20125;-67
2024/01/09 08:39:05;;;;;;;8.27;5.65;;;;;;;;;;4989330;28;20077;-67
2024/01/09 08:41:31;;;;;;;8.32;5.18;;;;;;;;;;4984630;28;20049;-67
2024/01/09 08:43:57;;;;;;;7.50;5.38;;;;;;;;;;4989636;28;20132;-67
2024/01/09 08:46:23;;;;;;;8.02;5.40;;;;;;;;;;4987115;28;20488;-67
2024/01/09 08:48:49;;;;;;;11.55;6.00;;;;;;;;;;4983888;28;20053;-67
2024/01/09 08:51:16;;;;;;;7.25;5.03;;;;;;;;;;4989547;28;20050;-67
2024/01/09 08:53:42;;;;;;;10.07;6.43;;;;;;;;;;4990068;28;20108;-68
2024/01/09 08:56:09;;;;;;;9.20;6.10;;;;;;;;;;4984808;28;20046;-68
2024/01/09 08:58:35;;;;;;;8.60;6.40;;;;;;;;;;4989423;28;20041;-67
2024/01/09 09:01:01;;;;;;;10.30;5.65;;;;;;;;;;4985759;28;20043;-68
2024/01/09 09:03:28;;;;;;;7.65;5.43;;;;;;;;;;4986563;28;20050;-68
2024/01/09 09:05:54;;;;;;;10.30;6.28;;;;;;;;;;4985396;28;20054;-67
2024/01/09 09:08:22;;;;;;;9.25;6.47;;;;;;;;;;4992968;28;20447;-68
2024/01/09 09:10:48;;;;;;;9.45;6.13;;;;;;;;;;4988512;28;20178;-67
2024/01/09 09:13:14;;;;;;;9.18;6.28;;;;;;;;;;4990361;28;20046;-68
2024/01/09 09:15:40;;;;;;;7.65;5.72;;;;;;;;;;4993064;28;20391;-67
2024/01/09 09:18:06;;;;;;;8.50;5.50;;;;;;;;;;4990590;28;20039;-67
2024/01/09 09:20:32;;;;;;;10.38;6.00;;;;;;;;;;4987082;28;20177;-67
2024/01/09 09:22:59;;;;;;;9.18;6.18;;;;;;;;;;4988493;28;20046;-68
2024/01/09 09:25:24;;;;;;;7.57;5.65;;;;;;;;;;4990146;28;20230;-68
2024/01/09 09:27:50;;;;;;;8.13;5.65;;;;;;;;;;4990021;28;20478;-67
2024/01/09 09:30:17;;;;;;;8.32;5.95;;;;;;;;;;4988231;28;20054;-68
2024/01/09 09:32:43;;;;;;;7.13;5.82;;;;;;;;;;4991929;28;20065;-67
2024/01/09 09:35:09;;;;;;;9.93;6.30;;;;;;;;;;4988541;28;20046;-68
2024/01/09 09:37:35;;;;;;;7.65;5.43;;;;;;;;;;4983753;28;20046;-67
2024/01/09 09:40:01;;;;;;;9.70;5.90;;;;;;;;;;5018008;28;20044;-68
2024/01/09 09:42:31;;;;;;;7.57;5.45;;;;;;;;;;4985364;28;20046;-68
2024/01/09 09:45:00;;;;;;;8.15;5.90;;;;;;;;;;4989562;28;20495;-68
2024/01/09 09:47:27;;;;;;;8.88;5.30;;;;;;;;;;4980318;28;20081;-68
2024/01/09 09:49:53;;;;;;;8.15;5.75;;;;;;;;;;4987777;28;20050;-68
2024/01/09 09:52:19;;;;;;;9.98;6.00;;;;;;;;;;4981190;28;20038;-68
2024/01/09 09:54:46;;;;;;;9.93;5.57;;;;;;;;;;4980849;28;20487;-68
2024/01/09 09:57:12;;;;;;;9.15;4.88;;;;;;;;;;4989773;28;20038;-68
2024/01/09 09:59:38;;;;;;;6.40;5.05;;;;;;;;;;4990110;28;20052;-67
2024/01/09 10:02:06;;;;;;;6.90;5.13;;;;;;;;;;4989453;28;20042;-67
2024/01/09 10:04:41;;;;;;;9.85;6.00;;;;;;;;;;4987136;28;20137;-68
2024/01/09 10:07:07;;;;;;;7.75;5.45;;;;;;;;;;4983712;28;20162;-68
2024/01/09 10:09:38;;;;;;;8.02;5.70;;;;;;;;;;4989710;28;20096;-68
2024/01/09 10:12:04;;;;;;;13.48;5.50;;;;;;;;;;4992183;28;20050;-68
2024/01/09 10:14:30;;;;;;;8.13;5.10;;;;;;;;;;4993670;28;20057;-67
2024/01/09 10:16:59;;;;;;;6.88;5.07;;;;;;;;;;4996100;28;20483;-67
2024/01/09 10:19:27;;;;;;;9.75;5.25;;;;;;;;;;4991331;28;20046;-68
2024/01/09 10:21:53;;;;;;;6.70;4.97;;;;;;;;;;4991336;28;20058;-68
2024/01/09 10:24:19;;;;;;;9.18;5.80;;;;;;;;;;4991185;28;20398;-67
2024/01/09 10:26:45;;;;;;;10.70;5.60;;;;;;;;;;4992742;28;20072;-67
2024/01/09 10:29:12;;;;;;;9.43;5.07;;;;;;;;;;4987471;28;20053;-67
2024/01/09 10:31:41;;;;;;;6.88;4.45;;;;;;;;;;4983624;28;20130;-67
2024/01/09 10:34:07;;;;;;;11.77;5.20;;;;;;;;;;4977876;28;20054;-67
2024/01/09 10:36:33;;;;;;;7.28;5.10;;;;;;;;;;4992627;28;20054;-67
2024/01/09 10:39:06;;;;;;;7.47;5.20;;;;;;;;;;4980070;28;20057;-68
2024/01/09 10:41:33;;;;;;;6.47;4.80;;;;;;;;;;4976729;28;20070;-67
2024/01/09 10:44:03;;;;;;;7.18;4.68;;;;;;;;;;4989475;28;20316;-67
2024/01/09 10:46:29;;;;;;;8.85;4.95;;;;;;;;;;4991269;28;20051;-67
2024/01/09 10:48:57;;;;;;;7.38;4.60;;;;;;;;;;4990738;28;20054;-68
2024/01/09 10:51:24;;;;;;;5.63;4.40;;;;;;;;;;4992457;28;20053;-68
2024/01/09 10:53:53;;;;;;;4.88;4.13;;;;;;;;;;4992309;28;20458;-68
2024/01/09 10:56:23;;;;;;;6.32;4.50;;;;;;;;;;4991538;28;20119;-68
2024/01/09 10:58:49;;;;;;;8.13;4.65;;;;;;;;;;4990809;28;20058;-72
2024/01/09 11:01:16;;;;;;;8.18;4.63;;;;;;;;;;5019677;28;20050;-68
2024/01/09 11:03:45;;;;;;;14.07;10.65;;;;;;;;;;4988947;28;20050;-68
2024/01/09 11:06:12;;;;;;;10.77;6.30;;;;;;;;;;4991809;28;20141;-68
2024/01/09 11:08:39;;;;;;;18.23;8.30;;;;;;;;;;4995424;28;20088;-68
2024/01/09 11:11:08;;;;;;;21.90;11.57;;;;;;;;;;4997325;28;20128;-67
2024/01/09 11:13:36;;;;;;;15.82;8.63;;;;;;;;;;4989524;28;20042;-67
2024/01/09 11:16:03;;;;;;;14.82;8.60;;;;;;;;;;5001944;28;20038;-67
2024/01/09 11:18:30;;;;;;;14.13;7.85;;;;;;;;;;4990537;28;20482;-68
2024/01/09 11:21:02;;;;;;;10.32;6.20;;;;;;;;;;5003352;28;20035;-68
2024/01/09 11:23:43;;;;;;;12.75;6.30;;;;;;;;;;4993444;28;20101;-68
2024/01/09 11:26:10;;;;;;;7.30;5.03;;;;;;;;;;4990020;28;20146;-68
2024/01/09 11:28:36;;;;;;;8.15;5.55;;;;;;;;;;5026538;28;20054;-68
2024/01/09 11:31:06;;;;;;;6.97;4.80;;;;;;;;;;5005808;28;20034;-68
2024/01/09 11:33:32;;;;;;;5.93;4.97;;;;;;;;;;4988595;28;20052;-68
2024/01/09 11:36:05;;;;;;;7.43;5.00;;;;;;;;;;4989954;28;20479;-68
2024/01/09 11:38:31;;;;;;;6.10;4.38;;;;;;;;;;4983440;28;20046;-68
2024/01/09 11:41:02;;;;;;;5.88;4.20;;;;;;;;;;4987006;28;20134;-68
2024/01/09 11:43:28;;;;;;;4.78;3.97;;;;;;;;;;4990523;28;20042;-68
2024/01/09 11:45:55;;;;;;;7.03;4.63;;;;;;;;;;4987772;28;20058;-68
2024/01/09 11:48:21;;;;;;;7.57;4.82;;;;;;;;;;4985710;28;20107;-68
2024/01/09 11:50:47;;;;;;;5.75;3.95;;;;;;;;;;4980717;28;20498;-68
2024/01/09 11:53:13;;;;;;;7.55;6.10;;;;;;;;;;4996070;28;20061;-68
2024/01/09 11:55:40;;;;;;;9.38;4.53;;;;;;;;;;4991747;28;20522;-68
2024/01/09 11:58:07;;;;;;;6.82;3.90;;;;;;;;;;4992277;28;20046;-68
2024/01/09 12:00:35;;;;;;;5.57;3.88;;;;;;;;;;4990064;28;20447;-69
2024/01/09 12:03:01;;;;;;;5.28;3.90;;;;;;;;;;4991865;28;20061;-68
2024/01/09 12:05:28;;;;;;;5.80;4.03;;;;;;;;;;4989962;28;20050;-68
2024/01/09 12:07:54;;;;;;;7.22;4.15;;;;;;;;;;4986798;28;20054;-68
2024/01/09 12:10:20;;;;;;;5.40;4.10;;;;;;;;;;4988959;28;20065;-69
2024/01/09 12:12:46;;;;;;;4.70;3.65;;;;;;;;;;4990188;28;20042;-68
2024/01/09 12:15:19;;;;;;;4.55;4.00;;;;;;;;;;4985136;28;20038;-68
2024/01/09 12:17:52;;;;;;;5.25;4.25;;;;;;;;;;4985805;28;20050;-68
2024/01/09 12:20:18;;;;;;;4.95;3.88;;;;;;;;;;4983913;28;20057;-68
2024/01/09 12:22:44;;;;;;;7.63;4.97;;;;;;;;;;4990372;28;20082;-69
2024/01/09 12:25:10;;;;;;;5.20;3.92;;;;;;;;;;4989930;28;20034;-68
2024/01/09 12:27:36;;;;;;;8.13;4.20;;;;;;;;;;5004813;28;20100;-69
2024/01/09 12:30:02;;;;;;;5.53;3.72;;;;;;;;;;5000857;28;20149;-68
2024/01/09 12:32:30;;;;;;;8.18;4.70;;;;;;;;;;5001026;28;20035;-69
2024/01/09 12:34:56;;;;;;;5.22;4.00;;;;;;;;;;4996336;28;20053;-69
2024/01/09 12:37:22;;;;;;;5.00;3.75;;;;;;;;;;4986723;28;20085;-69
2024/01/09 12:40:01;;;;;;;8.32;4.13;;;;;;;;;;4986529;28;20053;-69
2024/01/09 12:42:27;;;;;;;8.10;5.15;;;;;;;;;;4976592;28;20057;-69
2024/01/09 12:44:53;;;;;;;9.73;5.30;;;;;;;;;;4977379;28;20058;-69
2024/01/09 12:47:19;;;;;;;9.43;5.03;;;;;;;;;;5011616;28;20053;-69
2024/01/09 12:49:45;;;;;;;7.50;4.22;;;;;;;;;;4983159;28;20046;-69
2024/01/09 12:52:12;;;;;;;7.03;5.13;;;;;;;;;;4984257;28;20053;-69
2024/01/09 12:54:38;;;;;;;8.98;5.40;;;;;;;;;;4981633;28;20039;-69
2024/01/09 12:57:05;;;;;;;9.35;7.80;;;;;;;;;;4978124;28;20109;-69
2024/01/09 12:59:32;;;;;;;8.18;6.38;;;;;;;;;;4981557;28;20125;-69
2024/01/09 13:01:58;;;;;;;6.85;5.07;;;;;;;;;;4983951;28;20046;-69
2024/01/09 13:04:24;;;;;;;6.78;4.85;;;;;;;;;;4982107;28;20047;-69
2024/01/09 13:06:50;;;;;;;6.35;5.72;;;;;;;;;;4981068;28;20100;-69
2024/01/09 13:09:16;;;;;;;4.63;4.10;;;;;;;;;;4979448;28;20382;-69
2024/01/09 13:11:45;;;;;;;4.32;3.80;;;;;;;;;;4981508;28;20599;-69
2024/01/09 13:14:11;;;;;;;5.32;3.80;;;;;;;;;;5013021;28;20054;-69
2024/01/09 13:16:37;;;;;;;8.18;3.80;;;;;;;;;;4983847;28;20490;-69
2024/01/09 13:19:04;;;;;;;6.43;4.00;;;;;;;;;;4980877;28;20077;-69
2024/01/09 13:21:30;;;;;;;7.95;4.80;;;;;;;;;;4979068;28;21302;-69
2024/01/09 13:23:56;;;;;;;5.47;3.75;;;;;;;;;;5010871;28;20050;-70
2024/01/09 13:26:22;;;;;;;4.47;3.58;;;;;;;;;;5013855;28;20050;-70
2024/01/09 13:28:48;;;;;;;4.93;3.85;;;;;;;;;;4979424;28;20455;-69
2024/01/09 13:31:14;;;;;;;5.18;3.80;;;;;;;;;;5026241;28;20082;-69
2024/01/09 13:33:40;;;;;;;7.13;5.38;;;;;;;;;;4991312;28;20050;-69
2024/01/09 13:36:06;;;;;;;6.43;5.32;;;;;;;;;;4983191;28;20524;-69
2024/01/09 13:38:33;;;;;;;6.10;5.60;;;;;;;;;;4981678;28;20577;-68
2024/01/09 13:41:01;;;;;;;6.22;5.35;;;;;;;;;;4978414;28;20395;-69
2024/01/09 13:43:27;;;;;;;5.75;4.40;;;;;;;;;;4981299;28;20069;-69
2024/01/09 13:45:58;;;;;;;5.18;4.15;;;;;;;;;;4978997;28;20162;-69
2024/01/09 13:48:24;;;;;;;6.68;4.30;;;;;;;;;;4986784;28;20124;-69
2024/01/09 13:50:50;;;;;;;5.35;4.00;;;;;;;;;;5017564;28;20046;-68
2024/01/09 13:53:17;;;;;;;6.63;5.90;;;;;;;;;;4982682;28;20042;-68
2024/01/09 13:55:44;;;;;;;5.18;4.10;;;;;;;;;;4982997;28;20164;-69
2024/01/09 13:58:10;;;;;;;4.30;3.72;;;;;;;;;;4987689;28;20048;-68
2024/01/09 14:00:37;;;;;;;5.65;4.82;;;;;;;;;;4989222;28;20552;-69
2024/01/09 14:03:03;;;;;;;4.60;3.60;;;;;;;;;;4987326;28;20043;-68
2024/01/09 14:05:29;;;;;;;6.50;3.75;;;;;;;;;;5016006;28;20042;-69
2024/01/09 14:07:55;;;;;;;5.28;4.10;;;;;;;;;;4985000;28;20058;-69
2024/01/09 14:10:22;;;;;;;6.53;5.10;;;;;;;;;;5016450;28;20046;-68
2024/01/09 14:12:48;;;;;;;6.47;5.05;;;;;;;;;;4986309;28;20097;-68
2024/01/09 14:15:16;;;;;;;5.57;5.03;;;;;;;;;;4984338;28;20046;-69
2024/01/09 14:17:42;;;;;;;4.15;3.75;;;;;;;;;;4983660;28;20046;-69
2024/01/09 14:20:09;;;;;;;6.55;3.47;;;;;;;;;;4988242;28;20462;-69
2024/01/09 14:22:35;;;;;;;7.55;4.28;;;;;;;;;;4985202;28;20479;-68
2024/01/09 14:25:01;;;;;;;5.75;4.22;;;;;;;;;;4989028;28;20047;-68
2024/01/09 14:27:28;;;;;;;4.50;3.60;;;;;;;;;;5014187;28;20046;-69
2024/01/09 14:29:55;;;;;;;5.32;3.92;;;;;;;;;;5014911;28;20491;-69
2024/01/09 14:32:21;;;;;;;4.13;3.40;;;;;;;;;;4984085;28;20076;-68
2024/01/09 14:34:47;;;;;;;4.18;3.55;;;;;;;;;;4984961;28;20042;-68
2024/01/09 14:37:13;;;;;;;4.47;3.25;;;;;;;;;;4984048;28;20066;-68